Time;durP1;ratioP1;P1;durP2;ratioP2;P2;SDS_P1;SDS_P2;PMS_P1;PMS_P2;Temp;Humidity;BMP_temperature;BMP_pressure;BME280_temperature;BME280_humidity;BME280_pressure;Samples;Min_cycle;Max_cycle;Signal;HPM_P1;HPM_P2
2023/05/29 00:01:08;;;;;;;8.13;2.88;;;;;;;10.05;61.34;100084.91;5051465;28;20056;-61
2023/05/29 00:03:35;;;;;;;5.57;2.70;;;;;;;10.08;61.61;100094.50;5051221;28;20116;-62
2023/05/29 00:06:05;;;;;;;6.70;2.45;;;;;;;10.12;61.32;100092.47;5051286;28;20025;-68
2023/05/29 00:08:31;;;;;;;5.22;2.50;;;;;;;10.08;61.48;100085.63;5051088;28;20033;-67
2023/05/29 00:10:57;;;;;;;7.00;3.05;;;;;;;10.05;61.21;100092.94;5051576;28;20776;-62
2023/05/29 00:13:23;;;;;;;6.07;2.78;;;;;;;9.84;61.50;100055.22;5050765;28;20102;-62
2023/05/29 00:15:48;;;;;;;6.85;2.75;;;;;;;10.00;61.42;100096.91;5051929;28;20037;-61
2023/05/29 00:18:14;;;;;;;7.93;2.60;;;;;;;10.01;61.73;100091.47;5055324;28;20044;-61
2023/05/29 00:20:40;;;;;;;6.07;2.40;;;;;;;10.04;61.74;100090.34;5054798;28;20395;-59
2023/05/29 00:23:06;;;;;;;5.40;2.67;;;;;;;9.99;61.28;100082.66;5055009;28;20194;-59
2023/05/29 00:25:32;;;;;;;7.47;2.50;;;;;;;9.96;61.54;100090.09;5054873;28;20415;-65
2023/05/29 00:27:58;;;;;;;5.70;2.88;;;;;;;9.97;61.85;100099.81;5054567;28;20025;-62
2023/05/29 00:30:24;;;;;;;4.97;2.40;;;;;;;10.00;61.25;100103.09;5054547;28;20032;-61
2023/05/29 00:32:51;;;;;;;3.42;2.47;;;;;;;9.96;61.35;100095.44;5054731;28;20085;-68
2023/05/29 00:35:17;;;;;;;8.80;2.70;;;;;;;9.94;61.48;100100.88;5054182;28;20032;-63
2023/05/29 00:37:43;;;;;;;4.75;2.50;;;;;;;9.96;61.29;100101.63;5036554;28;20037;-61
2023/05/29 00:40:10;;;;;;;6.47;2.55;;;;;;;9.94;61.26;100097.38;5054501;28;20338;-62
2023/05/29 00:42:35;;;;;;;5.88;2.40;;;;;;;9.79;61.38;100073.44;5054677;28;20112;-60
2023/05/29 00:45:02;;;;;;;4.80;2.90;;;;;;;9.89;61.08;100101.25;5037060;28;20033;-60
2023/05/29 00:47:31;;;;;;;5.78;2.40;;;;;;;9.85;61.38;100097.06;5053917;28;20036;-63
2023/05/29 00:49:57;;;;;;;7.30;2.63;;;;;;;9.84;61.56;100092.66;5054987;28;20041;-61
2023/05/29 00:52:25;;;;;;;10.85;2.88;;;;;;;9.84;61.41;100098.03;5054335;28;20036;-62
2023/05/29 00:54:51;;;;;;;7.35;2.67;;;;;;;9.85;61.49;100098.91;5054185;28;20029;-62
2023/05/29 00:57:17;;;;;;;5.88;2.90;;;;;;;9.82;61.57;100107.97;5053850;28;20064;-61
2023/05/29 00:59:45;;;;;;;8.15;2.88;;;;;;;9.83;61.65;100107.00;5054539;28;20028;-62
2023/05/29 01:02:12;;;;;;;4.55;2.53;;;;;;;9.86;61.50;100119.31;5053692;28;20356;-62
2023/05/29 01:04:38;;;;;;;3.22;2.13;;;;;;;9.82;61.40;100107.97;5053702;28;20036;-62
2023/05/29 01:07:04;;;;;;;5.10;2.75;;;;;;;9.81;61.36;100108.94;5054300;28;20467;-75
2023/05/29 01:09:30;;;;;;;6.15;2.60;;;;;;;9.81;61.47;100103.59;5054561;28;20060;-62
2023/05/29 01:12:14;;;;;;;5.18;3.25;;;;;;;9.93;61.89;100111.72;5053876;28;20051;-61
2023/05/29 01:15:04;;;;;;;5.30;2.35;;;;;;;9.94;61.72;100118.75;5035654;28;20163;-64
2023/05/29 01:17:55;;;;;;;4.03;2.30;;;;;;;9.99;61.60;100116.59;5036674;28;20460;-62
2023/05/29 01:20:37;;;;;;;5.53;2.30;;;;;;;9.98;61.33;100115.72;5034234;28;20057;-61
2023/05/29 01:23:12;;;;;;;5.45;2.38;;;;;;;9.92;61.65;100113.50;5033820;28;20033;-60
2023/05/29 01:25:47;;;;;;;5.55;2.75;;;;;;;9.95;61.66;100126.66;5033864;28;20037;-61
2023/05/29 01:28:18;;;;;;;4.28;2.83;;;;;;;9.94;61.64;100124.94;5034151;28;20029;-61
2023/05/29 01:30:45;;;;;;;4.75;2.47;;;;;;;9.89;61.42;100111.94;5034046;28;20040;-61
2023/05/29 01:33:10;;;;;;;6.70;2.40;;;;;;;9.95;61.40;100123.16;5038279;28;20020;-61
2023/05/29 01:35:36;;;;;;;4.50;2.30;;;;;;;9.96;61.34;100127.53;5053488;28;20056;-65
2023/05/29 01:38:02;;;;;;;5.05;2.50;;;;;;;9.99;61.75;100125.47;5053480;28;20357;-62
2023/05/29 01:40:27;;;;;;;7.25;2.70;;;;;;;9.73;61.60;100084.59;5053492;28;20020;-61
2023/05/29 01:42:53;;;;;;;6.03;2.70;;;;;;;10.04;61.04;100125.13;5053030;28;20111;-60
2023/05/29 01:45:18;;;;;;;8.20;2.90;;;;;;;10.12;61.16;100124.56;5053028;28;20025;-63
2023/05/29 01:47:44;;;;;;;4.20;2.50;;;;;;;10.15;60.85;100133.22;5036151;28;20108;-62
2023/05/29 01:50:12;;;;;;;5.30;2.50;;;;;;;10.17;61.07;100123.28;5053572;28;20069;-61
2023/05/29 01:52:38;;;;;;;3.25;2.25;;;;;;;10.13;61.15;100108.41;5035179;28;20025;-62
2023/05/29 01:55:04;;;;;;;4.15;2.33;;;;;;;10.24;60.63;100134.34;5053132;28;20099;-62
2023/05/29 01:57:30;;;;;;;7.63;2.70;;;;;;;10.28;60.55;100122.47;5053040;28;20117;-61
2023/05/29 01:59:55;;;;;;;6.53;2.65;;;;;;;10.30;60.45;100125.88;5052572;28;20112;-61
2023/05/29 02:02:22;;;;;;;8.93;2.38;;;;;;;10.37;60.48;100126.28;5053052;28;20122;-63
2023/05/29 02:04:48;;;;;;;5.05;2.42;;;;;;;10.44;60.08;100122.19;5052591;28;20079;-62
2023/05/29 02:07:15;;;;;;;7.40;2.75;;;;;;;10.47;59.79;100121.97;5053076;28;20037;-61
2023/05/29 02:09:40;;;;;;;4.15;2.45;;;;;;;10.52;59.74;100120.75;5052663;28;20056;-61
2023/05/29 02:12:07;;;;;;;4.85;2.17;;;;;;;10.70;59.27;100129.19;5052968;28;20440;-67
2023/05/29 02:14:33;;;;;;;2.88;2.20;;;;;;;10.81;59.21;100126.56;5033295;28;20037;-63
2023/05/29 02:17:01;;;;;;;8.25;2.30;;;;;;;11.04;58.19;100131.97;5052481;28;20044;-62
2023/05/29 02:19:27;;;;;;;3.63;2.35;;;;;;;11.22;57.90;100128.84;5052002;28;20043;-61
2023/05/29 02:21:53;;;;;;;6.60;2.40;;;;;;;11.47;57.30;100133.97;5052711;28;20036;-62
2023/05/29 02:24:19;;;;;;;6.97;2.90;;;;;;;11.63;56.28;100113.94;5052501;28;20029;-64
2023/05/29 02:26:47;;;;;;;8.88;2.33;;;;;;;12.10;55.54;100132.56;5052554;28;20456;-63
2023/05/29 02:29:13;;;;;;;4.75;2.45;;;;;;;12.46;54.79;100117.03;5052800;28;20437;-62
2023/05/29 02:31:38;;;;;;;6.65;2.42;;;;;;;13.00;53.04;100133.09;5052460;28;20025;-72
2023/05/29 02:34:04;;;;;;;7.03;2.45;;;;;;;13.35;51.89;100123.81;5052195;28;20094;-64
2023/05/29 02:36:30;;;;;;;6.43;2.55;;;;;;;13.64;50.87;100130.34;5035185;28;20069;-62
2023/05/29 02:38:55;;;;;;;6.60;2.15;;;;;;;13.85;49.79;100126.69;5051681;28;20029;-63
2023/05/29 02:41:21;;;;;;;9.75;2.63;;;;;;;13.86;49.66;100140.03;5052126;28;20108;-62
2023/05/29 02:43:46;;;;;;;6.45;2.58;;;;;;;13.74;49.92;100133.03;5034805;28;20029;-61
2023/05/29 02:46:12;;;;;;;9.30;2.60;;;;;;;13.39;50.06;100102.03;5052650;28;20060;-61
2023/05/29 02:48:37;;;;;;;6.18;2.65;;;;;;;13.46;50.24;100138.19;5052256;28;20565;-62
2023/05/29 02:51:03;;;;;;;4.57;2.28;;;;;;;13.25;50.51;100127.44;5052005;28;20029;-61
2023/05/29 02:53:28;;;;;;;5.78;2.78;;;;;;;13.24;50.78;100137.34;5052359;28;20028;-68
2023/05/29 02:55:54;;;;;;;5.70;2.38;;;;;;;13.23;50.83;100141.00;5052054;28;20025;-60
2023/05/29 02:58:20;;;;;;;4.80;2.35;;;;;;;13.18;50.83;100132.50;5031899;28;20041;-63
2023/05/29 03:00:46;;;;;;;5.40;2.40;;;;;;;13.17;50.52;100142.44;5036507;28;20028;-61
2023/05/29 03:03:12;;;;;;;7.10;2.30;;;;;;;13.07;50.62;100112.78;5051939;28;20029;-63
2023/05/29 03:05:37;;;;;;;6.05;2.30;;;;;;;13.48;49.83;100146.97;5052778;28;20453;-61
2023/05/29 03:08:03;;;;;;;4.25;2.50;;;;;;;13.91;49.03;100150.41;5051911;28;20040;-62
2023/05/29 03:10:28;;;;;;;7.40;2.55;;;;;;;14.53;47.53;100150.19;5051680;28;20070;-62
2023/05/29 03:12:55;;;;;;;7.05;2.40;;;;;;;15.17;46.13;100144.31;5052217;28;20025;-63
2023/05/29 03:15:20;;;;;;;4.97;2.65;;;;;;;15.82;44.27;100145.34;5052328;28;20033;-63
2023/05/29 03:17:46;;;;;;;4.22;2.13;;;;;;;16.57;42.45;100145.16;5033718;28;20432;-62
2023/05/29 03:20:13;;;;;;;5.40;2.53;;;;;;;17.21;41.16;100144.97;5051781;28;20041;-65
2023/05/29 03:22:38;;;;;;;11.80;2.45;;;;;;;17.90;40.12;100146.00;5051891;28;20033;-62
2023/05/29 03:25:04;;;;;;;6.25;2.30;;;;;;;18.53;38.68;100151.06;5052197;28;20460;-61
2023/05/29 03:27:30;;;;;;;8.77;2.60;;;;;;;19.07;37.75;100151.44;5052041;28;20094;-60
2023/05/29 03:29:57;;;;;;;7.28;2.92;;;;;;;19.67;36.56;100148.41;5051034;28;20125;-63
2023/05/29 03:32:23;;;;;;;8.77;2.63;;;;;;;20.35;35.07;100158.78;5051222;28;20113;-61
2023/05/29 03:34:49;;;;;;;7.15;2.20;;;;;;;20.86;34.04;100141.09;5052075;28;20116;-63
2023/05/29 03:37:14;;;;;;;6.25;2.53;;;;;;;21.18;32.85;100155.41;5051383;28;20215;-65
2023/05/29 03:39:40;;;;;;;5.53;3.00;;;;;;;21.53;32.45;100161.19;5051497;28;20037;-64
2023/05/29 03:42:05;;;;;;;6.70;3.22;;;;;;;21.88;31.38;100149.72;5051903;28;20170;-61
2023/05/29 03:44:31;;;;;;;6.57;2.45;;;;;;;22.45;30.51;100150.78;5051555;28;20025;-61
2023/05/29 03:46:56;;;;;;;6.63;2.67;;;;;;;23.02;29.70;100150.03;5051245;28;20452;-63
2023/05/29 03:49:22;;;;;;;5.07;2.53;;;;;;;23.57;28.63;100154.88;5051590;28;20078;-63
2023/05/29 03:51:47;;;;;;;6.90;2.47;;;;;;;24.02;28.01;100163.53;5053924;28;20032;-64
2023/05/29 03:54:13;;;;;;;7.85;2.83;;;;;;;24.62;26.88;100156.53;5055377;28;20124;-73
2023/05/29 03:56:38;;;;;;;8.05;2.50;;;;;;;25.32;26.29;100158.88;5055495;28;20107;-60
2023/05/29 03:59:04;;;;;;;5.82;2.65;;;;;;;25.56;25.65;100114.53;5055362;28;20452;-60
2023/05/29 04:01:29;;;;;;;5.82;2.50;;;;;;;26.33;24.90;100169.50;5054725;28;20033;-62
2023/05/29 04:03:55;;;;;;;8.27;2.58;;;;;;;26.87;23.98;100173.84;5055334;28;20029;-60
2023/05/29 04:06:21;;;;;;;5.30;2.70;;;;;;;27.54;22.92;100170.50;5054868;28;20037;-64
2023/05/29 04:08:47;;;;;;;7.85;2.75;;;;;;;28.12;22.13;100173.00;5054923;28;20067;-62
2023/05/29 04:11:13;;;;;;;9.85;2.83;;;;;;;28.73;21.22;100146.28;5055377;28;20029;-64
2023/05/29 04:13:39;;;;;;;8.65;2.50;;;;;;;29.53;20.29;100172.72;5055058;28;20103;-63
2023/05/29 04:16:05;;;;;;;4.22;2.55;;;;;;;30.08;19.51;100177.78;5055180;28;20036;-60
2023/05/29 04:18:31;;;;;;;10.32;2.85;;;;;;;30.58;19.15;100174.56;5054367;28;20069;-63
2023/05/29 04:20:57;;;;;;;7.25;2.90;;;;;;;30.95;18.84;100176.88;5054353;28;20083;-62
2023/05/29 04:23:22;;;;;;;11.82;3.00;;;;;;;31.48;18.54;100180.22;5054500;28;20071;-62
2023/05/29 04:25:50;;;;;;;8.05;2.55;;;;;;;32.06;17.47;100170.72;5054383;28;20109;-62
2023/05/29 04:28:17;;;;;;;6.18;2.15;;;;;;;32.62;17.04;100175.22;5052907;28;20079;-73
2023/05/29 04:30:42;;;;;;;5.25;2.58;;;;;;;33.27;16.21;100177.94;5053509;28;20032;-62
2023/05/29 04:33:12;;;;;;;7.20;2.80;;;;;;;33.72;15.93;100172.13;5053731;28;20013;-62
2023/05/29 04:35:38;;;;;;;10.18;2.90;;;;;;;34.00;15.79;100170.88;5053080;28;20028;-61
2023/05/29 04:38:04;;;;;;;8.48;2.90;;;;;;;34.35;15.13;100158.19;5053242;28;20079;-62
2023/05/29 04:40:31;;;;;;;6.93;2.55;;;;;;;35.10;14.70;100189.44;5053836;28;20024;-62
2023/05/29 04:43:00;;;;;;;10.00;2.38;;;;;;;35.48;14.34;100183.53;5053114;28;20025;-62
2023/05/29 04:45:26;;;;;;;6.13;2.85;;;;;;;35.95;14.00;100188.94;5052892;28;20103;-62
2023/05/29 04:47:53;;;;;;;5.78;2.67;;;;;;;36.32;13.31;100184.88;5032817;28;20033;-66
2023/05/29 04:50:19;;;;;;;5.55;2.80;;;;;;;36.72;13.45;100188.53;5052871;28;20037;-62
2023/05/29 04:52:44;;;;;;;8.38;3.00;;;;;;;36.84;13.46;100167.78;5053022;28;20043;-65
2023/05/29 04:55:10;;;;;;;9.88;2.85;;;;;;;37.46;12.87;100200.69;5053107;28;20024;-61
2023/05/29 04:57:36;;;;;;;6.90;2.75;;;;;;;37.85;12.16;100190.50;5053196;28;20132;-61
2023/05/29 05:00:06;;;;;;;6.88;3.25;;;;;;;38.30;11.99;100188.22;5053297;28;20111;-63
2023/05/29 05:02:32;;;;;;;4.30;2.65;;;;;;;38.58;11.38;100185.59;5046613;28;20033;-63
2023/05/29 05:04:58;;;;;;;6.50;2.55;;;;;;;38.92;10.63;100194.88;5052663;28;20075;-62
2023/05/29 05:07:24;;;;;;;6.13;2.70;;;;;;;39.55;10.71;100201.03;5052762;28;20032;-61
2023/05/29 05:09:50;;;;;;;6.30;2.95;;;;;;;40.07;10.19;100197.16;5053006;28;20539;-61
2023/05/29 05:12:15;;;;;;;5.95;2.65;;;;;;;40.61;9.75;100188.91;5052898;28;20128;-70
2023/05/29 05:14:41;;;;;;;7.70;3.33;;;;;;;40.91;9.16;100188.47;5052683;28;20032;-61
2023/05/29 05:17:07;;;;;;;7.93;2.75;;;;;;;41.36;9.05;100193.22;5052199;28;20060;-64
2023/05/29 05:19:32;;;;;;;7.35;3.03;;;;;;;41.92;8.84;100191.91;5052626;28;20086;-61
2023/05/29 05:21:58;;;;;;;9.65;3.08;;;;;;;42.43;8.69;100195.13;5052288;28;20185;-60
2023/05/29 05:24:23;;;;;;;6.53;2.53;;;;;;;42.88;8.68;100189.19;5052246;28;20050;-61
2023/05/29 05:26:49;;;;;;;8.25;2.80;;;;;;;43.27;7.76;100183.59;5052429;28;20017;-61
2023/05/29 05:29:14;;;;;;;5.78;2.80;;;;;;;43.79;8.02;100193.00;5052647;28;20024;-67
2023/05/29 05:31:40;;;;;;;8.75;2.65;;;;;;;44.11;7.44;100187.00;5033689;28;20029;-60
2023/05/29 05:34:06;;;;;;;12.25;3.10;;;;;;;44.47;7.42;100179.09;5052023;28;20033;-61
2023/05/29 05:36:32;;;;;;;9.07;2.60;;;;;;;44.93;7.27;100182.00;5052136;28;20812;-63
2023/05/29 05:38:58;;;;;;;7.15;3.03;;;;;;;44.76;7.08;100160.41;5052743;28;20051;-62
2023/05/29 05:41:23;;;;;;;7.72;3.03;;;;;;;44.88;7.24;100183.03;5051844;28;20424;-62
2023/05/29 05:43:49;;;;;;;7.63;2.95;;;;;;;45.11;7.05;100182.66;5051895;28;20425;-61
2023/05/29 05:46:17;;;;;;;7.05;2.80;;;;;;;45.50;6.68;100177.50;5052000;28;20044;-69
2023/05/29 05:48:42;;;;;;;7.10;2.65;;;;;;;45.90;6.10;100175.94;5051891;28;20036;-63
2023/05/29 05:51:08;;;;;;;5.18;2.22;;;;;;;45.94;5.44;100187.38;5051988;28;20163;-61
2023/05/29 05:53:33;;;;;;;3.67;2.05;;;;;;;45.78;4.81;100187.28;5052736;28;20357;-62
2023/05/29 05:55:59;;;;;;;1.60;1.50;;;;;;;45.71;5.02;100187.84;5052290;28;20033;-61
2023/05/29 05:58:25;;;;;;;3.42;1.60;;;;;;;45.99;5.15;100192.78;5052948;28;20036;-61
2023/05/29 06:00:52;;;;;;;2.25;1.80;;;;;;;46.41;5.09;100191.63;5035571;28;20033;-60
2023/05/29 06:03:18;;;;;;;2.70;1.65;;;;;;;46.89;4.63;100169.16;5052555;28;20064;-62
2023/05/29 06:05:43;;;;;;;2.67;1.70;;;;;;;47.91;4.13;100189.50;5052719;28;20114;-60
2023/05/29 06:08:09;;;;;;;5.25;1.77;;;;;;;48.29;3.86;100190.75;5052615;28;20119;-61
2023/05/29 06:10:34;;;;;;;2.97;1.75;;;;;;;48.65;3.50;100187.84;5035103;28;20033;-63
2023/05/29 06:13:00;;;;;;;5.07;1.67;;;;;;;48.25;4.35;100189.88;5051359;28;20448;-61
2023/05/29 06:15:26;;;;;;;2.95;1.60;;;;;;;47.32;4.32;100194.16;5051841;28;20029;-61
2023/05/29 06:17:52;;;;;;;4.15;1.77;;;;;;;47.05;4.64;100176.84;5035083;28;20136;-62
2023/05/29 06:20:17;;;;;;;5.05;1.80;;;;;;;47.56;4.37;100193.94;5035255;28;20033;-66
2023/05/29 06:22:43;;;;;;;5.55;2.13;;;;;;;46.94;4.60;100174.53;5052792;28;20080;-62
2023/05/29 06:25:09;;;;;;;3.88;1.70;;;;;;;47.26;4.49;100199.25;5052445;28;20485;-62
2023/05/29 06:27:35;;;;;;;2.40;1.70;;;;;;;47.56;3.89;100188.28;5052159;28;20040;-61
2023/05/29 06:30:00;;;;;;;5.63;1.50;;;;;;;48.14;3.67;100192.47;5052727;28;20039;-60
2023/05/29 06:32:28;;;;;;;3.60;1.48;;;;;;;48.98;3.36;100197.84;5052233;28;20074;-61
2023/05/29 06:34:53;;;;;;;3.70;1.98;;;;;;;49.51;3.03;100195.50;5052390;28;20534;-61
2023/05/29 06:37:19;;;;;;;1.80;1.27;;;;;;;49.94;2.57;100201.06;5035379;28;20057;-64
2023/05/29 06:39:45;;;;;;;2.47;1.38;;;;;;;50.61;2.36;100208.03;5052452;28;20075;-61
2023/05/29 06:42:11;;;;;;;2.63;1.45;;;;;;;50.78;1.85;100191.50;5051448;28;20032;-61
2023/05/29 06:44:36;;;;;;;1.45;1.38;;;;;;;51.05;1.78;100209.31;5052598;28;20071;-60
2023/05/29 06:47:02;;;;;;;2.85;1.38;;;;;;;51.28;1.66;100210.31;5035142;28;20360;-60
2023/05/29 06:49:27;;;;;;;1.65;1.50;;;;;;;51.36;1.62;100200.63;5051680;28;20033;-61
2023/05/29 06:51:53;;;;;;;1.40;1.27;;;;;;;50.75;1.72;100192.31;5051323;28;20056;-61
2023/05/29 06:54:18;;;;;;;1.80;1.55;;;;;;;50.01;2.02;100186.06;5052897;28;20028;-62
2023/05/29 06:56:44;;;;;;;1.70;1.40;;;;;;;49.80;2.02;100208.13;5052399;28;20029;-61
2023/05/29 06:59:09;;;;;;;1.50;1.40;;;;;;;50.37;1.80;100200.81;5051499;28;20033;-60
2023/05/29 07:01:35;;;;;;;1.75;1.45;;;;;;;51.10;1.58;100196.72;5051775;28;20028;-63
2023/05/29 07:04:01;;;;;;;2.08;1.90;;;;;;;51.76;1.60;100187.47;5052184;28;20090;-61
2023/05/29 07:06:26;;;;;;;1.80;1.65;;;;;;;52.46;1.62;100197.22;5052262;28;20403;-61
2023/05/29 07:08:51;;;;;;;5.07;1.95;;;;;;;52.47;1.77;100191.13;5051336;28;20029;-62
2023/05/29 07:11:17;;;;;;;3.45;2.10;;;;;;;52.93;1.54;100203.03;5034441;28;20120;-62
2023/05/29 07:13:42;;;;;;;2.53;2.33;;;;;;;53.39;1.19;100195.75;5034611;28;20032;-60
2023/05/29 07:16:08;;;;;;;2.95;2.00;;;;;;;53.65;1.61;100202.25;5045723;28;20029;-62
2023/05/29 07:18:34;;;;;;;2.38;2.17;;;;;;;53.25;1.13;100208.81;5041662;28;20060;-59
2023/05/29 07:21:00;;;;;;;4.65;2.30;;;;;;;53.43;1.49;100202.28;5050353;28;20057;-60
2023/05/29 07:23:26;;;;;;;2.40;2.20;;;;;;;53.18;1.53;100197.38;5051109;28;20068;-60
2023/05/29 07:25:51;;;;;;;2.13;1.90;;;;;;;53.17;1.24;100177.75;5036898;28;20024;-60
2023/05/29 07:28:17;;;;;;;3.92;2.78;;;;;;;53.79;1.49;100192.84;5038029;28;20350;-64
2023/05/29 07:30:42;;;;;;;4.70;2.92;;;;;;;54.01;1.17;100201.34;5048622;28;20421;-62
2023/05/29 07:33:08;;;;;;;2.50;2.30;;;;;;;54.43;0.50;100198.75;5055020;28;20039;-60
2023/05/29 07:35:33;;;;;;;4.68;2.90;;;;;;;54.71;0.97;100205.56;5038011;28;20028;-63
2023/05/29 07:37:59;;;;;;;3.15;2.95;;;;;;;54.82;0.58;100194.84;5054892;28;20037;-62
2023/05/29 07:40:26;;;;;;;4.82;2.85;;;;;;;54.95;0.49;100193.09;5036201;28;20025;-61
2023/05/29 07:42:51;;;;;;;6.50;3.47;;;;;;;54.77;0.29;100181.78;5037031;28;20028;-66
2023/05/29 07:45:17;;;;;;;3.58;3.28;;;;;;;53.83;0.79;100187.13;5054618;28;20039;-62
2023/05/29 07:47:43;;;;;;;2.95;2.70;;;;;;;52.42;1.00;100187.84;5054748;28;20060;-66
2023/05/29 07:50:09;;;;;;;5.07;2.75;;;;;;;51.29;1.38;100170.03;5054484;28;20125;-61
2023/05/29 07:52:34;;;;;;;3.58;2.10;;;;;;;51.10;1.61;100179.63;5036888;28;20346;-62
2023/05/29 07:55:01;;;;;;;2.50;2.30;;;;;;;51.30;1.76;100182.25;5053584;28;20031;-61
2023/05/29 07:57:30;;;;;;;4.68;2.30;;;;;;;51.56;1.63;100189.78;5053981;28;20383;-63
2023/05/29 07:59:56;;;;;;;3.50;2.65;;;;;;;50.97;1.82;100176.25;5053585;28;20104;-62
2023/05/29 08:02:21;;;;;;;4.82;2.55;;;;;;;50.26;2.10;100190.09;5053681;28;20217;-66
2023/05/29 08:04:47;;;;;;;2.10;2.00;;;;;;;49.77;2.13;100185.31;5054783;28;20433;-63
2023/05/29 08:07:13;;;;;;;2.00;1.90;;;;;;;48.95;2.70;100187.19;5054391;28;20129;-62
2023/05/29 08:09:38;;;;;;;5.22;1.60;;;;;;;47.25;2.98;100183.44;5036033;28;20452;-62
2023/05/29 08:12:05;;;;;;;1.90;1.80;;;;;;;46.42;3.48;100182.78;5053873;28;20341;-60
2023/05/29 08:14:31;;;;;;;1.88;1.70;;;;;;;45.61;3.85;100171.38;5055055;28;20048;-64
2023/05/29 08:16:56;;;;;;;4.35;1.20;;;;;;;44.08;4.06;100182.03;5053377;28;20052;-64
2023/05/29 08:19:23;;;;;;;2.38;1.25;;;;;;;41.92;5.21;100186.28;5053881;28;20437;-64
2023/05/29 08:21:48;;;;;;;0.85;0.85;;;;;;;39.23;6.55;100183.09;5054009;28;20060;-63
2023/05/29 08:24:14;;;;;;;3.83;1.10;;;;;;;36.58;7.55;100177.19;5054637;28;20080;-65
2023/05/29 08:26:40;;;;;;;5.40;1.13;;;;;;;34.28;9.48;100195.72;5052736;28;20036;-63
2023/05/29 08:29:05;;;;;;;1.98;1.30;;;;;;;32.31;10.63;100180.41;5053544;28;20406;-62
2023/05/29 08:31:31;;;;;;;2.05;0.98;;;;;;;30.72;11.65;100180.63;5054313;28;20107;-62
2023/05/29 08:33:57;;;;;;;2.28;1.30;;;;;;;29.35;12.57;100188.31;5053188;28;20388;-63
2023/05/29 08:36:22;;;;;;;2.90;1.00;;;;;;;28.17;13.40;100186.91;5053223;28;20033;-63
2023/05/29 08:38:49;;;;;;;3.13;0.82;;;;;;;27.31;14.79;100191.22;5054486;28;20033;-68
2023/05/29 08:41:24;;;;;;;3.53;1.17;;;;;;;26.70;15.70;100198.22;5054606;28;20031;-62
2023/05/29 08:43:50;;;;;;;4.00;1.27;;;;;;;26.14;16.47;100179.50;5053627;28;20430;-61
2023/05/29 08:46:17;;;;;;;2.75;0.90;;;;;;;25.81;16.58;100169.53;5053099;28;20033;-61
2023/05/29 08:48:47;;;;;;;1.20;1.02;;;;;;;25.46;17.64;100156.94;5053783;28;20401;-61
2023/05/29 08:51:13;;;;;;;2.83;0.98;;;;;;;25.46;17.83;100186.22;5053607;28;20456;-63
2023/05/29 08:53:40;;;;;;;2.00;0.90;;;;;;;25.21;17.29;100174.06;5053766;28;20051;-62
2023/05/29 08:56:05;;;;;;;1.50;1.15;;;;;;;25.03;18.49;100171.94;5053623;28;20025;-61
2023/05/29 08:58:33;;;;;;;4.97;1.20;;;;;;;24.85;18.35;100158.06;5041028;28;20445;-61
2023/05/29 09:00:59;;;;;;;3.25;1.40;;;;;;;24.71;18.20;100176.31;5048607;28;20452;-64
2023/05/29 09:03:25;;;;;;;2.97;1.25;;;;;;;24.51;18.57;100169.75;5053388;28;20060;-62
2023/05/29 09:05:50;;;;;;;2.50;1.35;;;;;;;24.51;18.94;100168.94;5052830;28;20357;-67
2023/05/29 09:08:16;;;;;;;2.38;0.90;;;;;;;24.12;18.95;100124.84;5043042;28;20082;-65
2023/05/29 09:10:43;;;;;;;2.47;0.90;;;;;;;23.93;19.21;100159.25;5053866;28;20469;-69
2023/05/29 09:13:09;;;;;;;1.35;1.20;;;;;;;23.73;19.76;100156.44;5036495;28;20105;-64
2023/05/29 09:15:35;;;;;;;3.33;1.10;;;;;;;23.72;19.52;100161.03;5035150;28;20021;-64
2023/05/29 09:18:01;;;;;;;1.83;1.30;;;;;;;23.78;18.32;100156.66;5052794;28;20384;-64
2023/05/29 09:20:27;;;;;;;5.00;1.40;;;;;;;23.73;18.05;100159.16;5053304;28;20418;-68
2023/05/29 09:22:57;;;;;;;4.97;1.13;;;;;;;23.72;19.41;100160.22;5053843;28;20040;-65
2023/05/29 09:25:26;;;;;;;2.03;1.02;;;;;;;23.69;18.83;100155.16;5053884;28;20041;-66
2023/05/29 09:28:00;;;;;;;2.05;1.00;;;;;;;23.68;18.76;100156.19;5053529;28;20028;-66
2023/05/29 09:30:42;;;;;;;4.53;1.35;;;;;;;23.72;17.88;100152.00;5053499;28;20112;-63
2023/05/29 09:33:09;;;;;;;4.20;1.25;;;;;;;23.43;17.99;100126.63;5046685;28;20360;-62
2023/05/29 09:35:36;;;;;;;6.55;1.95;;;;;;;23.62;18.76;100155.94;5053528;28;20131;-63
2023/05/29 09:38:02;;;;;;;7.03;1.60;;;;;;;23.60;18.86;100152.56;5053779;28;20486;-64
2023/05/29 09:40:36;;;;;;;3.97;1.08;;;;;;;23.78;18.44;100159.38;5053672;28;20044;-63
2023/05/29 09:43:13;;;;;;;3.15;1.10;;;;;;;23.84;18.50;100155.00;5053802;28;20441;-64
2023/05/29 09:45:40;;;;;;;2.30;1.27;;;;;;;23.72;18.28;100139.16;5053682;28;20362;-64
2023/05/29 09:48:12;;;;;;;4.07;1.60;;;;;;;23.79;18.05;100139.19;5052331;28;20063;-63
2023/05/29 09:50:39;;;;;;;8.30;1.50;;;;;;;23.79;18.89;100140.06;5053330;28;20036;-65
2023/05/29 09:53:19;;;;;;;3.33;1.20;;;;;;;23.75;18.91;100125.13;5053612;28;20032;-64
2023/05/29 09:55:50;;;;;;;2.85;1.35;;;;;;;23.78;19.11;100137.53;5053577;28;20121;-65
2023/05/29 09:58:17;;;;;;;2.65;1.05;;;;;;;23.65;19.47;100132.84;5053406;28;20036;-63
2023/05/29 10:00:43;;;;;;;1.50;1.10;;;;;;;23.39;19.18;100128.06;5053230;28;20107;-63
2023/05/29 10:03:11;;;;;;;3.42;1.20;;;;;;;23.25;19.14;100117.06;5052924;28;20351;-64
2023/05/29 10:05:38;;;;;;;2.28;1.33;;;;;;;23.33;19.78;100130.56;5053161;28;20056;-70
2023/05/29 10:08:07;;;;;;;5.45;1.70;;;;;;;23.41;20.13;100126.00;5053154;28;20037;-64
2023/05/29 10:10:35;;;;;;;3.30;1.40;;;;;;;23.46;20.50;100123.50;5053272;28;20345;-63
2023/05/29 10:13:03;;;;;;;2.80;1.30;;;;;;;23.23;20.09;100097.28;5053546;28;20029;-64
2023/05/29 10:15:30;;;;;;;5.10;1.40;;;;;;;23.38;19.83;100121.75;5053099;28;20440;-63
2023/05/29 10:18:04;;;;;;;2.38;1.23;;;;;;;23.44;20.42;100104.56;5052806;28;20131;-63
2023/05/29 10:20:33;;;;;;;5.93;1.40;;;;;;;23.29;20.65;100118.34;5052002;28;20044;-63
2023/05/29 10:23:01;;;;;;;4.00;1.30;;;;;;;23.32;20.26;100123.41;5052813;28;20436;-62
2023/05/29 10:25:29;;;;;;;6.72;1.05;;;;;;;23.34;18.95;100118.56;5053100;28;20495;-62
2023/05/29 10:27:57;;;;;;;3.75;1.50;;;;;;;23.45;19.30;100127.28;5052929;28;20452;-63
2023/05/29 10:30:42;;;;;;;4.10;3.13;;;;;;;23.54;18.65;100125.22;5052373;28;20029;-65
2023/05/29 10:33:44;;;;;;;3.28;1.60;;;;;;;23.52;18.41;100117.22;5052168;28;20067;-62
2023/05/29 10:36:24;;;;;;;6.13;1.30;;;;;;;23.45;18.70;100105.41;5052819;28;20395;-63
2023/05/29 10:38:51;;;;;;;5.53;1.15;;;;;;;23.33;18.51;100105.97;5053163;28;20025;-63
2023/05/29 10:41:28;;;;;;;2.08;1.20;;;;;;;23.44;18.43;100106.47;5052499;28;20029;-63
2023/05/29 10:43:55;;;;;;;5.68;1.50;;;;;;;23.35;18.80;100106.59;5049475;28;20479;-62
2023/05/29 10:46:21;;;;;;;3.78;1.30;;;;;;;23.40;19.00;100103.28;5051819;28;20160;-67
2023/05/29 10:48:49;;;;;;;2.20;1.25;;;;;;;23.44;19.23;100092.81;5038223;28;20152;-61
2023/05/29 10:51:31;;;;;;;2.97;1.13;;;;;;;23.62;18.93;100105.91;5031637;28;20365;-64
2023/05/29 10:53:56;;;;;;;3.20;1.23;;;;;;;23.47;18.43;100092.38;5046812;28;20040;-65
2023/05/29 10:56:24;;;;;;;2.35;1.25;;;;;;;23.41;18.75;100099.50;5051914;28;20033;-71
2023/05/29 10:58:53;;;;;;;6.88;1.65;;;;;;;23.23;19.02;100078.16;5051989;28;20021;-62
2023/05/29 11:01:22;;;;;;;3.78;1.50;;;;;;;23.24;19.65;100093.50;5050451;28;20029;-64
2023/05/29 11:03:48;;;;;;;2.67;1.92;;;;;;;23.17;19.41;100092.63;5051172;28;20044;-65
2023/05/29 11:06:19;;;;;;;1.85;1.50;;;;;;;23.21;19.81;100094.72;5050001;28;20033;-64
2023/05/29 11:08:46;;;;;;;2.60;1.30;;;;;;;23.19;20.04;100088.63;5051172;28;20029;-64
2023/05/29 11:11:29;;;;;;;3.75;1.27;;;;;;;23.21;20.43;100091.16;5050602;28;20106;-64
2023/05/29 11:13:56;;;;;;;4.15;1.20;;;;;;;23.11;19.74;100077.00;5047722;28;20033;-66
2023/05/29 11:16:30;;;;;;;2.15;1.10;;;;;;;23.14;20.26;100088.38;5051174;28;20029;-70
2023/05/29 11:18:58;;;;;;;3.97;1.30;;;;;;;22.76;19.95;100067.75;5050144;28;20061;-64
2023/05/29 11:21:31;;;;;;;4.28;1.40;;;;;;;22.94;20.58;100077.34;5050716;28;20037;-64
2023/05/29 11:24:02;;;;;;;7.63;1.38;;;;;;;22.91;20.04;100073.13;5050994;28;20052;-62
2023/05/29 11:26:29;;;;;;;5.78;1.40;;;;;;;22.86;20.35;100074.75;5051172;28;20472;-63
2023/05/29 11:29:04;;;;;;;1.92;1.27;;;;;;;22.96;19.99;100074.41;5051466;28;20450;-63